Time;durP1;ratioP1;P1;durP2;ratioP2;P2;SDS_P1;SDS_P2;PMS_P1;PMS_P2;Temp;Humidity;BMP_temperature;BMP_pressure;BME280_temperature;BME280_humidity;BME280_pressure;Samples;Min_cycle;Max_cycle;Signal;HPM_P1;HPM_P2
2022/04/20 00:01:09;;;;;;;5.05;3.20;;;;;;;;;;5037237;28;20469;-82
2022/04/20 00:03:39;;;;;;;4.68;2.95;;;;;;;;;;5053595;28;20512;-81
2022/04/20 00:06:08;;;;;;;6.72;3.35;;;;;;;;;;5057724;28;20052;-82
2022/04/20 00:08:36;;;;;;;5.38;3.20;;;;;;;;;;5056863;28;20139;-82
2022/04/20 00:11:07;;;;;;;3.88;3.17;;;;;;;;;;5057945;28;20048;-82
2022/04/20 00:13:36;;;;;;;8.75;3.28;;;;;;;;;;5042602;28;20462;-82
2022/04/20 00:16:07;;;;;;;4.28;2.72;;;;;;;;;;5058048;28;20049;-81
2022/04/20 00:18:36;;;;;;;4.85;2.90;;;;;;;;;;5057457;28;20056;-81
2022/04/20 00:21:08;;;;;;;6.88;3.47;;;;;;;;;;5051338;28;20049;-82
2022/04/20 00:23:36;;;;;;;5.18;3.50;;;;;;;;;;5038611;28;20109;-82
2022/04/20 00:26:07;;;;;;;4.93;3.17;;;;;;;;;;5038388;28;20108;-82
2022/04/20 00:28:36;;;;;;;5.20;3.15;;;;;;;;;;5038263;28;20076;-82
2022/04/20 00:31:08;;;;;;;6.45;3.45;;;;;;;;;;5037857;28;20099;-81
2022/04/20 00:33:37;;;;;;;5.95;3.50;;;;;;;;;;5038455;28;20041;-82
2022/04/20 00:36:10;;;;;;;6.30;3.53;;;;;;;;;;5047949;28;20060;-82
2022/04/20 00:38:39;;;;;;;5.93;3.47;;;;;;;;;;5058162;28;20056;-81
2022/04/20 00:41:09;;;;;;;4.28;3.28;;;;;;;;;;5058302;28;20429;-81
2022/04/20 00:43:38;;;;;;;6.00;3.65;;;;;;;;;;5037843;28;20107;-82
2022/04/20 00:46:06;;;;;;;5.95;3.17;;;;;;;;;;5038006;28;20504;-81
2022/04/20 00:48:38;;;;;;;6.30;3.30;;;;;;;;;;5038104;28;20077;-82
2022/04/20 00:51:06;;;;;;;5.95;3.13;;;;;;;;;;5033258;28;20415;-82
2022/04/20 00:53:36;;;;;;;5.70;3.58;;;;;;;;;;5047012;28;20318;-82
2022/04/20 00:56:07;;;;;;;9.23;3.67;;;;;;;;;;5052164;28;20053;-82
2022/04/20 00:58:36;;;;;;;7.43;4.32;;;;;;;;;;5051816;28;20120;-82
2022/04/20 01:01:06;;;;;;;4.82;3.53;;;;;;;;;;5052811;28;20152;-82
2022/04/20 01:03:35;;;;;;;6.25;3.25;;;;;;;;;;5040025;28;20497;-82
2022/04/20 01:06:05;;;;;;;5.53;3.67;;;;;;;;;;5032490;28;20049;-81
2022/04/20 01:08:33;;;;;;;7.28;3.95;;;;;;;;;;5031437;28;20076;-82
2022/04/20 01:11:05;;;;;;;7.05;4.18;;;;;;;;;;5032433;28;20053;-82
2022/04/20 01:13:33;;;;;;;7.05;3.88;;;;;;;;;;5031992;28;20088;-82
2022/04/20 01:16:02;;;;;;;6.18;3.65;;;;;;;;;;5032089;28;20045;-82
2022/04/20 01:18:33;;;;;;;5.93;3.30;;;;;;;;;;5031742;28;20136;-82
2022/04/20 01:21:06;;;;;;;7.20;4.13;;;;;;;;;;5039407;28;20122;-81
2022/04/20 01:23:35;;;;;;;5.72;3.53;;;;;;;;;;5051675;28;20053;-82
2022/04/20 01:26:06;;;;;;;4.85;3.70;;;;;;;;;;5051582;28;20063;-82
2022/04/20 01:28:35;;;;;;;4.93;3.63;;;;;;;;;;5051826;28;20096;-82
2022/04/20 01:31:07;;;;;;;6.07;3.80;;;;;;;;;;5051857;28;20515;-82
2022/04/20 01:33:35;;;;;;;7.65;4.25;;;;;;;;;;5051583;28;20055;-82
2022/04/20 01:36:07;;;;;;;5.28;3.28;;;;;;;;;;5052193;28;20132;-82
2022/04/20 01:38:36;;;;;;;7.43;3.72;;;;;;;;;;5031555;28;20136;-82
2022/04/20 01:41:07;;;;;;;5.88;3.80;;;;;;;;;;5031502;28;20089;-82
2022/04/20 01:43:35;;;;;;;6.68;3.92;;;;;;;;;;5030917;28;20107;-82
2022/04/20 01:46:06;;;;;;;5.60;3.63;;;;;;;;;;5031376;28;20091;-82
2022/04/20 01:48:35;;;;;;;5.50;3.30;;;;;;;;;;5031100;28;20060;-82
2022/04/20 01:53:51;;;;;;;5.53;3.67;;;;;;;;;;5031229;28;20045;-82
2022/04/20 01:56:19;;;;;;;6.65;3.78;;;;;;;;;;5031651;28;20555;-82
2022/04/20 01:58:47;;;;;;;5.93;3.80;;;;;;;;;;5030759;28;20501;-81
2022/04/20 02:04:02;;;;;;;5.50;3.55;;;;;;;;;;5033629;28;20067;-81
2022/04/20 02:06:30;;;;;;;6.95;3.97;;;;;;;;;;5035745;28;20045;-82
2022/04/20 02:09:00;;;;;;;7.65;3.75;;;;;;;;;;5016913;28;20095;-82
2022/04/20 02:11:28;;;;;;;5.00;3.50;;;;;;;;;;5035254;28;20076;-82
2022/04/20 02:13:58;;;;;;;5.93;3.65;;;;;;;;;;5034967;28;20042;-82
2022/04/20 02:16:26;;;;;;;6.00;3.75;;;;;;;;;;5034484;28;20112;-82
2022/04/20 02:18:55;;;;;;;5.57;3.75;;;;;;;;;;5034559;28;20541;-82
2022/04/20 02:21:23;;;;;;;5.85;3.80;;;;;;;;;;5053274;28;20509;-82
2022/04/20 02:23:51;;;;;;;6.20;3.20;;;;;;;;;;5054474;28;20073;-81
2022/04/20 02:26:21;;;;;;;6.25;4.43;;;;;;;;;;5054823;28;20091;-82
2022/04/20 02:28:50;;;;;;;5.40;3.70;;;;;;;;;;5040338;28;20069;-82
2022/04/20 02:31:18;;;;;;;6.03;4.40;;;;;;;;;;5034630;28;20461;-82
2022/04/20 02:33:46;;;;;;;6.10;4.28;;;;;;;;;;5035019;28;20049;-82
2022/04/20 02:36:15;;;;;;;7.05;4.05;;;;;;;;;;5051257;28;20103;-81
2022/04/20 02:38:43;;;;;;;7.22;4.00;;;;;;;;;;5059552;28;20056;-82
2022/04/20 02:41:11;;;;;;;7.05;4.00;;;;;;;;;;5059219;28;20100;-81
2022/04/20 02:43:41;;;;;;;6.35;4.30;;;;;;;;;;5059944;28;20102;-82
2022/04/20 02:46:09;;;;;;;8.35;4.20;;;;;;;;;;5042406;28;20430;-82
2022/04/20 02:48:38;;;;;;;8.93;4.15;;;;;;;;;;5038959;28;20048;-82
2022/04/20 02:51:06;;;;;;;5.38;3.92;;;;;;;;;;5038739;28;20141;-82
2022/04/20 02:53:34;;;;;;;6.72;4.38;;;;;;;;;;5038999;28;20164;-82
2022/04/20 02:56:05;;;;;;;5.72;3.88;;;;;;;;;;5035529;28;20055;-81
2022/04/20 02:58:34;;;;;;;7.05;4.22;;;;;;;;;;5034935;28;20049;-82
2022/04/20 03:01:07;;;;;;;8.43;4.47;;;;;;;;;;5034933;28;20491;-82
2022/04/20 03:03:35;;;;;;;7.95;4.55;;;;;;;;;;5034663;28;20107;-81
2022/04/20 03:06:06;;;;;;;7.53;4.57;;;;;;;;;;5034286;28;20061;-82
2022/04/20 03:08:35;;;;;;;7.88;4.75;;;;;;;;;;5033793;28;20077;-82
2022/04/20 03:11:08;;;;;;;8.95;4.47;;;;;;;;;;5049298;28;20276;-82
2022/04/20 03:13:36;;;;;;;7.28;4.13;;;;;;;;;;5054270;28;20143;-82
2022/04/20 03:16:09;;;;;;;7.82;4.43;;;;;;;;;;5054112;28;20045;-82
2022/04/20 03:18:37;;;;;;;8.60;5.07;;;;;;;;;;5052540;28;20083;-82
2022/04/20 03:21:08;;;;;;;10.02;4.95;;;;;;;;;;5038123;28;20041;-82
2022/04/20 03:23:37;;;;;;;6.55;4.82;;;;;;;;;;5033999;28;20088;-82
2022/04/20 03:26:08;;;;;;;8.20;4.93;;;;;;;;;;5034160;28;20048;-82
2022/04/20 03:28:36;;;;;;;8.45;5.22;;;;;;;;;;5033571;28;20072;-82
2022/04/20 03:31:07;;;;;;;9.77;5.63;;;;;;;;;;5034210;28;20136;-82
2022/04/20 03:33:37;;;;;;;8.70;5.68;;;;;;;;;;5034346;28;20136;-82
2022/04/20 03:36:08;;;;;;;8.98;5.72;;;;;;;;;;5035310;28;20077;-82
2022/04/20 03:38:37;;;;;;;11.80;6.22;;;;;;;;;;5033320;28;20084;-82
2022/04/20 03:41:09;;;;;;;11.45;6.40;;;;;;;;;;5034041;28;20057;-82
2022/04/20 03:43:37;;;;;;;10.68;6.30;;;;;;;;;;5033829;28;20050;-82
2022/04/20 03:46:08;;;;;;;12.70;7.13;;;;;;;;;;5033083;28;20119;-82
2022/04/20 03:48:38;;;;;;;9.52;6.50;;;;;;;;;;5032840;28;20049;-82
2022/04/20 03:51:07;;;;;;;13.45;7.75;;;;;;;;;;5033223;28;20088;-82
2022/04/20 03:53:35;;;;;;;11.35;6.80;;;;;;;;;;5033324;28;20555;-82
2022/04/20 03:56:06;;;;;;;12.80;7.57;;;;;;;;;;5032772;28;20049;-82
2022/04/20 03:58:35;;;;;;;13.73;7.70;;;;;;;;;;5033304;28;20092;-82
2022/04/20 04:01:06;;;;;;;15.10;7.05;;;;;;;;;;5046608;28;20098;-82
2022/04/20 04:03:36;;;;;;;12.13;7.45;;;;;;;;;;5052764;28;20399;-82
2022/04/20 04:06:08;;;;;;;12.13;7.63;;;;;;;;;;5053342;28;20053;-82
2022/04/20 04:08:36;;;;;;;11.48;7.18;;;;;;;;;;5052153;28;20072;-82
2022/04/20 04:11:07;;;;;;;12.13;7.05;;;;;;;;;;5036772;28;20088;-82
2022/04/20 04:13:36;;;;;;;13.23;7.28;;;;;;;;;;5033394;28;20053;-82
2022/04/20 04:16:07;;;;;;;14.70;7.55;;;;;;;;;;5032376;28;20045;-82
2022/04/20 04:18:35;;;;;;;13.55;7.97;;;;;;;;;;5032816;28;20485;-82
2022/04/20 04:21:06;;;;;;;14.30;8.32;;;;;;;;;;5033136;28;20524;-82
2022/04/20 04:23:36;;;;;;;12.38;8.15;;;;;;;;;;5033252;28;20136;-81
2022/04/20 04:26:07;;;;;;;12.88;7.32;;;;;;;;;;5032254;28;20422;-82
2022/04/20 04:28:35;;;;;;;12.02;7.38;;;;;;;;;;5032178;28;20095;-82
2022/04/20 04:31:06;;;;;;;13.18;7.47;;;;;;;;;;5033161;28;20367;-82
2022/04/20 04:33:35;;;;;;;13.55;7.47;;;;;;;;;;5033244;28;20050;-82
2022/04/20 04:36:07;;;;;;;13.50;8.30;;;;;;;;;;5042325;28;20052;-82
2022/04/20 04:38:37;;;;;;;13.27;7.50;;;;;;;;;;5052535;28;20095;-82
2022/04/20 04:41:09;;;;;;;13.20;8.15;;;;;;;;;;5053045;28;20087;-82
2022/04/20 04:43:38;;;;;;;14.90;8.20;;;;;;;;;;5047382;28;20080;-82
2022/04/20 04:48:55;;;;;;;14.60;8.05;;;;;;;;;;5031956;28;20140;-82
2022/04/20 04:51:23;;;;;;;15.77;8.13;;;;;;;;;;5051236;28;20586;-82
2022/04/20 04:53:53;;;;;;;14.65;7.95;;;;;;;;;;5052359;28;20060;-82
2022/04/20 04:56:22;;;;;;;13.20;8.43;;;;;;;;;;5052731;28;20077;-82
2022/04/20 04:58:50;;;;;;;15.85;8.43;;;;;;;;;;5052007;28;20110;-82
2022/04/20 05:01:19;;;;;;;13.65;8.00;;;;;;;;;;5042776;28;20124;-82
2022/04/20 05:03:47;;;;;;;14.95;8.07;;;;;;;;;;5032525;28;20140;-82
2022/04/20 05:06:15;;;;;;;15.75;8.02;;;;;;;;;;5032277;28;20140;-82
2022/04/20 05:08:44;;;;;;;12.30;7.38;;;;;;;;;;5031971;28;20176;-82
2022/04/20 05:11:13;;;;;;;14.77;7.60;;;;;;;;;;5032471;28;20049;-82
2022/04/20 05:13:42;;;;;;;16.00;8.68;;;;;;;;;;5031910;28;20557;-82
2022/04/20 05:16:11;;;;;;;13.43;8.38;;;;;;;;;;5032353;28;20073;-82
2022/04/20 05:18:39;;;;;;;12.40;7.07;;;;;;;;;;5032015;28;20049;-82
2022/04/20 05:21:08;;;;;;;15.02;8.40;;;;;;;;;;5032622;28;20103;-82
2022/04/20 05:23:36;;;;;;;15.07;8.00;;;;;;;;;;5033206;28;20132;-82
2022/04/20 05:26:07;;;;;;;14.32;7.88;;;;;;;;;;5032542;28;20057;-82
2022/04/20 05:28:37;;;;;;;14.45;8.27;;;;;;;;;;5031822;28;20069;-82
2022/04/20 05:31:08;;;;;;;13.65;8.43;;;;;;;;;;5032251;28;20088;-82
2022/04/20 05:33:36;;;;;;;17.92;8.10;;;;;;;;;;5032743;28;20060;-82
2022/04/20 05:36:07;;;;;;;13.63;7.57;;;;;;;;;;5041962;28;20132;-82
2022/04/20 05:41:42;;;;;;;15.30;7.38;;;;;;;;;;4986902;28;20117;-82
2022/04/20 05:44:13;;;;;;;15.85;7.70;;;;;;;;;;5023454;28;20054;-82
2022/04/20 05:46:41;;;;;;;14.77;7.85;;;;;;;;;;5036340;28;20041;-82
2022/04/20 05:49:10;;;;;;;14.38;7.60;;;;;;;;;;5035450;28;20053;-82
2022/04/20 05:51:38;;;;;;;16.13;8.27;;;;;;;;;;5037995;28;20148;-82
2022/04/20 05:54:07;;;;;;;13.65;7.60;;;;;;;;;;5036523;28;20128;-82
2022/04/20 05:56:35;;;;;;;13.93;8.07;;;;;;;;;;5036054;28;20140;-82
2022/04/20 05:59:03;;;;;;;13.82;7.47;;;;;;;;;;5036046;28;20467;-82
2022/04/20 06:01:33;;;;;;;15.10;7.80;;;;;;;;;;5035980;28;20049;-82
2022/04/20 06:04:02;;;;;;;13.57;7.63;;;;;;;;;;5037185;28;20049;-82
2022/04/20 06:06:30;;;;;;;14.43;8.25;;;;;;;;;;5036743;28;20085;-82
2022/04/20 06:08:59;;;;;;;12.60;7.90;;;;;;;;;;5035769;28;20088;-82
2022/04/20 06:11:29;;;;;;;13.93;7.65;;;;;;;;;;5035637;28;20386;-82
2022/04/20 06:13:57;;;;;;;13.85;7.45;;;;;;;;;;5036322;28;20126;-82
2022/04/20 06:16:26;;;;;;;12.52;7.68;;;;;;;;;;5036349;28;20081;-82
2022/04/20 06:18:56;;;;;;;12.45;7.65;;;;;;;;;;5049536;28;20132;-82
2022/04/20 06:21:25;;;;;;;17.15;8.50;;;;;;;;;;5056448;28;20536;-82
2022/04/20 06:23:54;;;;;;;14.05;7.82;;;;;;;;;;5056326;28;20052;-82
2022/04/20 06:26:22;;;;;;;14.98;7.88;;;;;;;;;;5045607;28;20497;-82
2022/04/20 06:28:51;;;;;;;14.55;7.70;;;;;;;;;;5035513;28;20056;-82
2022/04/20 06:31:19;;;;;;;17.42;7.68;;;;;;;;;;5035716;28;20445;-82
2022/04/20 06:33:47;;;;;;;15.52;8.88;;;;;;;;;;5035505;28;20056;-82
2022/04/20 06:36:17;;;;;;;18.55;8.35;;;;;;;;;;5046738;28;20132;-82
2022/04/20 06:38:46;;;;;;;13.63;7.53;;;;;;;;;;5055762;28;20049;-82
2022/04/20 06:41:14;;;;;;;14.15;8.32;;;;;;;;;;5055460;28;20049;-82
2022/04/20 06:43:43;;;;;;;16.05;7.75;;;;;;;;;;5042878;28;20413;-82
2022/04/20 06:46:11;;;;;;;13.85;7.95;;;;;;;;;;5035859;28;20041;-82
2022/04/20 06:48:39;;;;;;;12.63;7.22;;;;;;;;;;5033418;28;20053;-82
2022/04/20 06:51:08;;;;;;;15.90;8.20;;;;;;;;;;5035611;28;20068;-82
2022/04/20 06:59:10;;;;;;;11.02;7.40;;;;;;;;;;5034206;28;20115;-82
2022/04/20 07:01:38;;;;;;;19.50;7.78;;;;;;;;;;5054244;28;20084;-81
2022/04/20 07:04:07;;;;;;;12.27;7.40;;;;;;;;;;5055012;28;20045;-82
2022/04/20 07:06:36;;;;;;;18.60;7.72;;;;;;;;;;5054017;28;20543;-82
2022/04/20 07:09:06;;;;;;;13.45;7.93;;;;;;;;;;5053617;28;20049;-82
2022/04/20 07:11:34;;;;;;;15.48;7.20;;;;;;;;;;5055148;28;20053;-82
2022/04/20 07:14:03;;;;;;;14.68;8.15;;;;;;;;;;5054501;28;20045;-82
2022/04/20 07:16:31;;;;;;;12.95;7.10;;;;;;;;;;5054316;28;20050;-82
2022/04/20 07:19:00;;;;;;;14.45;7.38;;;;;;;;;;5054101;28;20095;-82
2022/04/20 07:21:29;;;;;;;13.27;7.40;;;;;;;;;;5055089;28;20045;-82
2022/04/20 07:23:57;;;;;;;13.85;7.65;;;;;;;;;;5055208;28;20053;-82
2022/04/20 07:26:27;;;;;;;12.23;7.07;;;;;;;;;;5054436;28;20136;-82
2022/04/20 07:28:56;;;;;;;11.55;7.15;;;;;;;;;;5054404;28;20049;-82
2022/04/20 07:31:24;;;;;;;13.13;7.57;;;;;;;;;;5054324;28;20048;-82
2022/04/20 07:33:53;;;;;;;11.60;6.75;;;;;;;;;;5047635;28;20081;-82
2022/04/20 07:36:21;;;;;;;10.38;6.47;;;;;;;;;;5045963;28;20099;-82
2022/04/20 07:38:50;;;;;;;11.50;6.82;;;;;;;;;;5052834;28;20091;-82
2022/04/20 07:41:18;;;;;;;10.27;6.47;;;;;;;;;;5053614;28;20057;-81
2022/04/20 07:43:49;;;;;;;13.82;6.78;;;;;;;;;;5054233;28;20049;-82
2022/04/20 07:46:20;;;;;;;12.80;7.13;;;;;;;;;;5054391;28;20049;-82
2022/04/20 07:48:48;;;;;;;9.80;5.97;;;;;;;;;;5053636;28;20045;-82
2022/04/20 07:51:18;;;;;;;11.38;6.25;;;;;;;;;;5044870;28;20105;-81
2022/04/20 07:53:46;;;;;;;14.48;7.50;;;;;;;;;;5033625;28;20057;-82
2022/04/20 07:56:14;;;;;;;11.45;6.32;;;;;;;;;;5033875;28;20053;-81
2022/04/20 07:58:43;;;;;;;13.70;7.50;;;;;;;;;;5047853;28;20049;-81
2022/04/20 08:01:14;;;;;;;11.85;6.57;;;;;;;;;;5052905;28;20523;-82
2022/04/20 08:03:42;;;;;;;9.60;5.78;;;;;;;;;;5052982;28;20049;-82
2022/04/20 08:06:12;;;;;;;15.82;6.93;;;;;;;;;;5053304;28;20095;-82
2022/04/20 08:08:40;;;;;;;11.00;6.60;;;;;;;;;;5039851;28;20057;-82
2022/04/20 08:11:15;;;;;;;9.40;5.97;;;;;;;;;;5033322;28;20053;-82
2022/04/20 08:16:32;;;;;;;16.17;6.25;;;;;;;;;;5045823;28;20075;-82
2022/04/20 08:19:00;;;;;;;11.95;7.18;;;;;;;;;;5032750;28;20132;-82
2022/04/20 08:21:29;;;;;;;11.18;6.43;;;;;;;;;;5032724;28;20141;-82
2022/04/20 08:23:58;;;;;;;10.88;6.80;;;;;;;;;;5032992;28;20053;-82
2022/04/20 08:26:32;;;;;;;10.73;6.40;;;;;;;;;;5033922;28;20138;-82
2022/04/20 08:29:01;;;;;;;10.23;6.00;;;;;;;;;;5033087;28;20056;-82
2022/04/20 08:31:32;;;;;;;11.55;5.97;;;;;;;;;;5032985;28;20045;-82
2022/04/20 08:34:01;;;;;;;11.50;5.82;;;;;;;;;;5032902;28;20101;-81
2022/04/20 08:36:30;;;;;;;9.07;5.40;;;;;;;;;;5045192;28;20045;-82
2022/04/20 08:38:59;;;;;;;9.77;6.00;;;;;;;;;;5052406;28;20053;-82
2022/04/20 08:41:28;;;;;;;9.18;5.15;;;;;;;;;;5050067;28;20053;-82
2022/04/20 08:43:58;;;;;;;8.68;5.03;;;;;;;;;;5032834;28;20072;-82
2022/04/20 08:46:28;;;;;;;8.68;5.57;;;;;;;;;;5032733;28;20475;-81
2022/04/20 08:48:58;;;;;;;9.23;5.38;;;;;;;;;;5032492;28;20073;-82
2022/04/20 08:52:37;;;;;;;7.90;4.70;;;;;;;;;;5032675;28;20050;-82
2022/04/20 08:54:17;;;;;;;7.20;4.30;;;;;;;;;;5032983;28;20519;-82
2022/04/20 08:59:32;;;;;;;8.75;5.28;;;;;;;;;;5031971;28;20053;-82
2022/04/20 09:02:02;;;;;;;8.15;4.90;;;;;;;;;;5032651;28;20059;-82
2022/04/20 09:04:32;;;;;;;9.63;5.88;;;;;;;;;;5032948;28;20076;-82
2022/04/20 09:07:03;;;;;;;8.35;5.00;;;;;;;;;;5032098;28;20057;-82
2022/04/20 09:09:33;;;;;;;6.72;4.78;;;;;;;;;;5031699;28;20049;-82
2022/04/20 09:12:02;;;;;;;11.80;5.20;;;;;;;;;;5031500;28;20072;-82
2022/04/20 09:14:31;;;;;;;9.27;5.65;;;;;;;;;;5032854;28;20049;-81
2022/04/20 09:17:01;;;;;;;10.88;6.25;;;;;;;;;;5032983;28;20061;-82
2022/04/20 09:19:31;;;;;;;7.63;4.90;;;;;;;;;;5032074;28;20055;-82
2022/04/20 09:22:01;;;;;;;8.63;4.85;;;;;;;;;;5031950;28;20054;-82
2022/04/20 09:24:29;;;;;;;8.27;5.65;;;;;;;;;;5031594;28;20049;-82
2022/04/20 09:26:59;;;;;;;10.80;5.53;;;;;;;;;;5032114;28;20149;-82
2022/04/20 09:29:28;;;;;;;7.47;4.60;;;;;;;;;;5032129;28;20045;-82
2022/04/20 09:31:57;;;;;;;9.50;5.57;;;;;;;;;;5032546;28;20111;-82
2022/04/20 09:34:53;;;;;;;8.15;4.78;;;;;;;;;;5032364;28;20053;-81
2022/04/20 09:37:23;;;;;;;7.18;4.45;;;;;;;;;;5032431;28;20050;-82
2022/04/20 09:39:52;;;;;;;7.45;4.55;;;;;;;;;;5031737;28;20551;-82
2022/04/20 09:42:21;;;;;;;6.97;4.43;;;;;;;;;;5042251;28;20048;-82
2022/04/20 09:44:54;;;;;;;7.20;4.70;;;;;;;;;;5051804;28;20076;-82
2022/04/20 09:50:13;;;;;;;8.35;5.30;;;;;;;;;;5046378;28;20111;-82
2022/04/20 09:52:43;;;;;;;6.32;4.45;;;;;;;;;;5032047;28;20045;-82
2022/04/20 09:55:12;;;;;;;6.70;4.30;;;;;;;;;;5032123;28;20046;-82
2022/04/20 09:57:42;;;;;;;6.80;4.15;;;;;;;;;;5031202;28;20057;-82
2022/04/20 10:00:12;;;;;;;6.95;3.90;;;;;;;;;;5032088;28;20062;-82
2022/04/20 10:02:50;;;;;;;7.47;4.25;;;;;;;;;;5031486;28;20079;-82
2022/04/20 10:05:21;;;;;;;8.60;4.30;;;;;;;;;;5043231;28;20045;-82
2022/04/20 10:07:54;;;;;;;6.43;4.20;;;;;;;;;;5037159;28;20052;-82
2022/04/20 10:10:25;;;;;;;7.95;4.53;;;;;;;;;;5032207;28;20054;-82
2022/04/20 10:12:55;;;;;;;7.57;4.00;;;;;;;;;;5032128;28;20088;-82
2022/04/20 10:18:16;;;;;;;6.10;3.97;;;;;;;;;;5032161;28;20504;-82
2022/04/20 10:20:47;;;;;;;6.15;4.13;;;;;;;;;;5032940;28;20053;-82
2022/04/20 10:23:19;;;;;;;6.65;4.10;;;;;;;;;;5032508;28;20045;-82
2022/04/20 10:25:49;;;;;;;6.68;4.15;;;;;;;;;;5035070;28;20061;-82
2022/04/20 10:28:23;;;;;;;7.40;4.53;;;;;;;;;;5034535;28;20049;-82
2022/04/20 10:31:01;;;;;;;6.50;4.07;;;;;;;;;;5035387;28;20046;-82
2022/04/20 10:33:36;;;;;;;6.28;3.85;;;;;;;;;;5035785;28;20049;-82
2022/04/20 10:36:11;;;;;;;7.50;4.30;;;;;;;;;;5043989;28;20135;-82
2022/04/20 10:38:40;;;;;;;5.78;3.63;;;;;;;;;;5054249;28;20079;-82
2022/04/20 10:41:10;;;;;;;7.88;4.50;;;;;;;;;;5046356;28;20045;-81
2022/04/20 10:43:40;;;;;;;5.18;3.42;;;;;;;;;;5054942;28;20045;-82
2022/04/20 10:46:11;;;;;;;7.88;3.83;;;;;;;;;;5054810;28;20049;-82
2022/04/20 10:48:46;;;;;;;5.53;3.53;;;;;;;;;;5054490;28;20049;-82
2022/04/20 10:51:17;;;;;;;5.50;3.70;;;;;;;;;;5054961;28;20085;-82
2022/04/20 10:53:47;;;;;;;5.50;3.88;;;;;;;;;;5054931;28;20053;-82
2022/04/20 10:56:17;;;;;;;7.60;3.80;;;;;;;;;;5055153;28;20501;-82
2022/04/20 10:58:53;;;;;;;6.05;3.95;;;;;;;;;;5040984;28;20049;-82
2022/04/20 11:01:22;;;;;;;6.82;3.72;;;;;;;;;;5035664;28;20049;-82
2022/04/20 11:04:15;;;;;;;5.03;3.25;;;;;;;;;;5035941;28;20052;-82
2022/04/20 11:07:03;;;;;;;5.90;3.30;;;;;;;;;;5016426;28;20046;-82
2022/04/20 11:09:49;;;;;;;5.80;3.40;;;;;;;;;;5034353;28;20049;-82
2022/04/20 11:21:16;;;;;;;4.28;2.63;;;;;;;;;;5060036;28;20544;-82
2022/04/20 11:23:52;;;;;;;4.75;2.60;;;;;;;;;;5059841;28;20072;-82
2022/04/20 11:26:24;;;;;;;3.90;2.70;;;;;;;;;;5058202;28;20049;-82
2022/04/20 11:28:54;;;;;;;5.38;2.90;;;;;;;;;;5058217;28;20049;-82
2022/04/20 11:31:23;;;;;;;4.30;2.95;;;;;;;;;;5056833;28;20056;-82
2022/04/20 11:33:53;;;;;;;4.35;2.65;;;;;;;;;;5037804;28;20103;-81
2022/04/20 11:36:23;;;;;;;5.38;2.72;;;;;;;;;;5045565;28;20625;-82
2022/04/20 11:38:53;;;;;;;3.58;2.53;;;;;;;;;;5053813;28;20045;-82
2022/04/20 11:41:23;;;;;;;5.45;3.38;;;;;;;;;;5054277;28;20053;-82
2022/04/20 11:43:52;;;;;;;5.00;3.03;;;;;;;;;;5054344;28;20080;-82
2022/04/20 11:46:21;;;;;;;4.07;2.95;;;;;;;;;;5054582;28;20049;-82
2022/04/20 11:48:55;;;;;;;5.68;3.10;;;;;;;;;;5047388;28;20045;-82
2022/04/20 11:51:25;;;;;;;5.47;3.63;;;;;;;;;;5034509;28;20096;-82
2022/04/20 11:53:54;;;;;;;5.28;3.10;;;;;;;;;;5033831;28;20071;-82
2022/04/20 11:56:38;;;;;;;3.97;2.50;;;;;;;;;;5033646;28;20049;-82
2022/04/20 11:59:07;;;;;;;3.97;2.40;;;;;;;;;;5033458;28;20053;-82
2022/04/20 12:01:38;;;;;;;3.55;2.30;;;;;;;;;;5034083;28;20489;-82
2022/04/20 12:04:13;;;;;;;5.82;2.53;;;;;;;;;;5033816;28;20466;-82
2022/04/20 12:06:46;;;;;;;4.75;2.70;;;;;;;;;;5033559;28;20069;-81
2022/04/20 12:09:16;;;;;;;4.72;2.92;;;;;;;;;;5032803;28;20064;-82
2022/04/20 12:11:46;;;;;;;4.90;3.08;;;;;;;;;;5047280;28;20044;-82
2022/04/20 12:14:16;;;;;;;3.55;2.53;;;;;;;;;;5052152;28;20041;-82
2022/04/20 12:16:45;;;;;;;4.45;3.40;;;;;;;;;;5052939;28;20096;-82
2022/04/20 12:19:15;;;;;;;4.20;2.88;;;;;;;;;;5052519;28;20132;-82
2022/04/20 12:21:48;;;;;;;3.92;2.70;;;;;;;;;;5053027;28;20056;-82
2022/04/20 12:24:21;;;;;;;3.72;2.97;;;;;;;;;;5044814;28;20056;-82
2022/04/20 12:26:52;;;;;;;5.07;2.80;;;;;;;;;;5052214;28;20057;-82
2022/04/20 12:29:22;;;;;;;4.40;2.95;;;;;;;;;;5052912;28;20397;-82
2022/04/20 12:31:54;;;;;;;5.50;2.95;;;;;;;;;;5053342;28;20056;-82
2022/04/20 12:34:25;;;;;;;4.20;3.10;;;;;;;;;;5053742;28;20144;-82
2022/04/20 12:36:55;;;;;;;4.50;2.80;;;;;;;;;;5053234;28;20083;-82
2022/04/20 12:39:24;;;;;;;5.47;3.13;;;;;;;;;;5049674;28;20447;-82
2022/04/20 12:41:56;;;;;;;4.03;2.60;;;;;;;;;;5039266;28;20044;-82
2022/04/20 12:44:49;;;;;;;4.00;2.78;;;;;;;;;;5053296;28;20053;-82
2022/04/20 12:47:36;;;;;;;4.13;3.00;;;;;;;;;;5051591;28;20049;-82
2022/04/20 12:50:19;;;;;;;5.72;3.00;;;;;;;;;;5051941;28;20056;-82
2022/04/20 12:52:55;;;;;;;4.50;3.05;;;;;;;;;;5052330;28;20053;-82
2022/04/20 12:55:24;;;;;;;5.70;2.88;;;;;;;;;;5052410;28;20055;-82
2022/04/20 13:03:46;;;;;;;4.80;3.60;;;;;;;;;;5031428;28;20056;-82
2022/04/20 13:06:15;;;;;;;5.60;3.80;;;;;;;;;;5032372;28;20057;-82
2022/04/20 13:08:45;;;;;;;5.10;3.85;;;;;;;;;;5032406;28;20050;-81
2022/04/20 13:11:15;;;;;;;6.07;3.88;;;;;;;;;;5032061;28;20091;-82
2022/04/20 13:14:06;;;;;;;5.47;3.70;;;;;;;;;;5032953;28;20396;-82
2022/04/20 13:16:35;;;;;;;6.15;4.13;;;;;;;;;;5032267;28;20139;-82
2022/04/20 13:19:04;;;;;;;4.95;3.40;;;;;;;;;;5031620;28;20136;-82
2022/04/20 13:21:33;;;;;;;8.02;3.30;;;;;;;;;;5031695;28;20136;-82
2022/04/20 13:24:03;;;;;;;5.05;3.70;;;;;;;;;;5032076;28;20057;-82
2022/04/20 13:29:22;;;;;;;5.63;3.75;;;;;;;;;;5031896;28;20057;-82
2022/04/20 13:31:52;;;;;;;6.20;3.47;;;;;;;;;;5031917;28;20041;-82
2022/04/20 13:34:21;;;;;;;4.68;3.28;;;;;;;;;;5032043;28;20046;-82
2022/04/20 13:36:50;;;;;;;6.28;3.88;;;;;;;;;;5047881;28;20193;-82
2022/04/20 13:39:20;;;;;;;8.65;4.13;;;;;;;;;;5051307;28;20105;-82
2022/04/20 13:41:49;;;;;;;4.40;3.30;;;;;;;;;;5051518;28;20051;-82
2022/04/20 13:44:18;;;;;;;6.10;4.13;;;;;;;;;;5052235;28;20052;-82
2022/04/20 13:46:48;;;;;;;4.72;3.55;;;;;;;;;;5052024;28;20044;-82
2022/04/20 13:49:17;;;;;;;5.47;3.63;;;;;;;;;;5033529;28;20136;-82
2022/04/20 13:51:46;;;;;;;5.57;3.60;;;;;;;;;;5032396;28;20045;-82
2022/04/20 13:54:15;;;;;;;6.43;4.13;;;;;;;;;;5035837;28;20045;-82
2022/04/20 13:56:44;;;;;;;5.05;3.67;;;;;;;;;;5051717;28;20048;-82
2022/04/20 13:59:13;;;;;;;4.50;3.45;;;;;;;;;;5055280;28;20056;-82
2022/04/20 14:01:42;;;;;;;6.45;3.90;;;;;;;;;;5056320;28;20076;-82
2022/04/20 14:04:13;;;;;;;5.15;3.53;;;;;;;;;;5055166;28;20049;-82
2022/04/20 14:06:42;;;;;;;5.25;3.10;;;;;;;;;;5035293;28;20061;-81
2022/04/20 14:09:11;;;;;;;3.85;2.85;;;;;;;;;;5034202;28;20061;-82
2022/04/20 14:11:40;;;;;;;5.32;3.78;;;;;;;;;;5035242;28;20100;-82
2022/04/20 14:14:09;;;;;;;5.85;3.33;;;;;;;;;;5035034;28;20646;-81
2022/04/20 14:16:41;;;;;;;5.65;4.18;;;;;;;;;;5035390;28;20049;-82
2022/04/20 14:19:11;;;;;;;8.88;3.65;;;;;;;;;;5034604;28;20111;-82
2022/04/20 14:21:41;;;;;;;4.05;3.28;;;;;;;;;;5034675;28;20077;-82
2022/04/20 14:24:12;;;;;;;7.28;4.22;;;;;;;;;;5035321;28;20081;-82
2022/04/20 14:32:13;;;;;;;4.63;3.45;;;;;;;;;;5034789;28;20052;-82
2022/04/20 14:34:42;;;;;;;5.38;3.28;;;;;;;;;;5035007;28;20085;-82
2022/04/20 14:37:13;;;;;;;7.47;3.00;;;;;;;;;;5053718;28;20099;-82
2022/04/20 14:39:42;;;;;;;5.78;3.67;;;;;;;;;;5041069;28;20509;-82
2022/04/20 14:42:12;;;;;;;6.32;4.53;;;;;;;;;;5043222;28;20110;-83
2022/04/20 14:44:41;;;;;;;5.95;3.35;;;;;;;;;;5054410;28;20044;-82
2022/04/20 14:47:11;;;;;;;4.57;3.40;;;;;;;;;;5054426;28;20052;-82
2022/04/20 14:49:40;;;;;;;5.50;3.83;;;;;;;;;;5054182;28;20564;-82
2022/04/20 14:52:09;;;;;;;8.07;3.63;;;;;;;;;;5054693;28;20045;-82
2022/04/20 14:54:40;;;;;;;6.15;4.10;;;;;;;;;;5054143;28;20045;-82
2022/04/20 14:57:29;;;;;;;5.03;2.97;;;;;;;;;;5035104;28;20061;-82
2022/04/20 14:59:57;;;;;;;3.97;2.72;;;;;;;;;;5033886;28;20092;-82
2022/04/20 15:02:26;;;;;;;5.50;3.83;;;;;;;;;;5034284;28;20063;-82
2022/04/20 15:04:54;;;;;;;6.88;3.00;;;;;;;;;;5034281;28;20464;-82
2022/04/20 15:07:23;;;;;;;5.10;3.67;;;;;;;;;;5034398;28;20056;-82
2022/04/20 15:09:57;;;;;;;5.85;3.53;;;;;;;;;;5035966;28;20103;-82
2022/04/20 15:12:26;;;;;;;4.80;3.70;;;;;;;;;;5035902;28;20136;-82
2022/04/20 15:14:55;;;;;;;6.35;3.35;;;;;;;;;;5053324;28;20057;-82
2022/04/20 15:17:23;;;;;;;5.93;3.70;;;;;;;;;;5053918;28;20048;-82
2022/04/20 15:19:53;;;;;;;4.95;3.35;;;;;;;;;;5052995;28;20530;-82
2022/04/20 15:22:22;;;;;;;5.55;3.42;;;;;;;;;;5053654;28;20053;-82
2022/04/20 15:24:51;;;;;;;4.82;3.33;;;;;;;;;;5054186;28;20059;-82
2022/04/20 15:27:21;;;;;;;6.68;3.40;;;;;;;;;;5053503;28;20045;-82
2022/04/20 15:29:49;;;;;;;4.70;3.50;;;;;;;;;;5047217;28;20402;-82
2022/04/20 15:32:18;;;;;;;6.80;3.95;;;;;;;;;;5033920;28;20489;-82
2022/04/20 15:34:47;;;;;;;5.28;3.80;;;;;;;;;;5033658;28;20045;-82
2022/04/20 15:37:15;;;;;;;6.05;3.95;;;;;;;;;;5053639;28;20053;-82
2022/04/20 15:39:47;;;;;;;5.75;3.13;;;;;;;;;;5052787;28;20044;-82
2022/04/20 15:42:24;;;;;;;6.03;3.50;;;;;;;;;;5042931;28;20517;-82
2022/04/20 15:44:53;;;;;;;4.90;3.08;;;;;;;;;;5032611;28;20421;-82
2022/04/20 15:47:21;;;;;;;4.75;3.10;;;;;;;;;;5042686;28;20053;-82